createdAt,value
2018-05-12T00:01:43.911Z,11.10
2018-05-12T00:04:12.303Z,11.00
2018-05-12T00:06:41.346Z,11.00
2018-05-12T00:09:14.636Z,10.80
2018-05-12T00:11:43.714Z,10.80
2018-05-12T00:14:13.013Z,10.80
2018-05-12T00:16:41.352Z,11.00
2018-05-12T00:19:09.741Z,11.10
2018-05-12T00:21:39.107Z,11.00
2018-05-12T00:24:07.408Z,10.90
2018-05-12T00:26:36.072Z,10.80
2018-05-12T00:29:04.444Z,10.80
2018-05-12T00:31:33.875Z,10.60
2018-05-12T00:34:03.098Z,10.60
2018-05-12T00:36:33.181Z,10.40
2018-05-12T00:39:01.484Z,10.30
2018-05-12T00:41:29.792Z,10.20
2018-05-12T00:43:58.107Z,10.20
2018-05-12T00:46:26.396Z,10.20
2018-05-12T00:48:54.766Z,10.30
2018-05-12T00:51:23.540Z,10.50
2018-05-12T00:53:51.851Z,10.60
2018-05-12T00:56:20.153Z,10.60
2018-05-12T00:58:48.497Z,10.70
2018-05-12T01:01:17.474Z,10.60
2018-05-12T01:03:45.782Z,10.50
2018-05-12T01:06:14.956Z,10.20
2018-05-12T01:08:43.259Z,10.20
2018-05-12T01:11:12.985Z,10.40
2018-05-12T01:13:41.607Z,10.40
2018-05-12T01:16:09.883Z,10.40
2018-05-12T01:18:38.774Z,10.50
2018-05-12T01:21:07.123Z,10.40
2018-05-12T01:23:36.171Z,10.50
2018-05-12T01:26:04.462Z,10.40
2018-05-12T01:28:32.871Z,10.30
2018-05-12T01:31:01.167Z,10.10
2018-05-12T01:33:29.699Z,9.90
2018-05-12T01:35:58.220Z,9.80
2018-05-12T01:38:26.634Z,10.00
2018-05-12T01:40:54.925Z,10.10
2018-05-12T01:43:23.632Z,10.20
2018-05-12T01:45:51.931Z,10.00
2018-05-12T01:48:20.258Z,9.90
2018-05-12T01:50:48.667Z,9.70
2018-05-12T01:53:17.215Z,9.70
2018-05-12T01:55:45.507Z,9.90
2018-05-12T01:58:13.838Z,10.00
2018-05-12T02:00:42.122Z,10.00
2018-05-12T02:03:10.475Z,9.90
2018-05-12T02:05:39.333Z,9.90
2018-05-12T02:08:08.027Z,10.10
2018-05-12T02:10:37.815Z,9.90
2018-05-12T02:13:06.144Z,9.90
2018-05-12T02:15:35.079Z,9.70
2018-05-12T02:18:03.398Z,9.80
2018-05-12T02:20:31.723Z,9.90
2018-05-12T02:23:00.644Z,10.00
2018-05-12T02:25:29.202Z,9.90
2018-05-12T02:27:58.278Z,9.90
2018-05-12T02:30:27.343Z,9.80
2018-05-12T02:32:56.453Z,9.80
2018-05-12T02:35:24.739Z,9.80
2018-05-12T02:37:53.034Z,10.00
2018-05-12T02:40:21.356Z,9.80
2018-05-12T02:42:49.656Z,9.60
2018-05-12T02:45:18.515Z,9.60
2018-05-12T02:47:48.203Z,9.80
2018-05-12T02:50:16.565Z,9.80
2018-05-12T02:52:45.471Z,9.70
2018-05-12T02:55:14.266Z,9.60
2018-05-12T02:57:44.036Z,9.40
2018-05-12T03:00:12.481Z,9.40
2018-05-12T03:02:40.954Z,9.20
2018-05-12T03:05:10.279Z,9.20
2018-05-12T03:07:38.638Z,9.10
2018-05-12T03:10:07.615Z,9.20
2018-05-12T03:12:35.929Z,9.30
2018-05-12T03:15:04.212Z,9.10
2018-05-12T03:17:32.542Z,9.00
2018-05-12T03:20:00.822Z,8.90
2018-05-12T03:22:29.142Z,8.90
2018-05-12T03:24:57.911Z,9.10
2018-05-12T03:27:26.198Z,9.20
2018-05-12T03:29:54.530Z,9.00
2018-05-12T03:32:23.015Z,8.80
2018-05-12T03:34:51.297Z,8.70
2018-05-12T03:37:19.602Z,8.90
2018-05-12T03:39:48.390Z,9.10
2018-05-12T03:42:17.135Z,9.20
2018-05-12T03:44:45.963Z,9.20
2018-05-12T03:47:14.774Z,9.00
2018-05-12T03:49:43.187Z,8.90
2018-05-12T03:52:11.475Z,9.10
2018-05-12T03:54:39.763Z,9.20
2018-05-12T03:57:08.159Z,9.20
2018-05-12T03:59:36.507Z,9.20
2018-05-12T04:02:05.286Z,9.20
2018-05-12T04:04:51.327Z,9.20
2018-05-12T04:07:37.750Z,9.30
2018-05-12T04:10:24.408Z,9.50
2018-05-12T04:12:53.558Z,9.40
2018-05-12T04:15:22.380Z,9.30
2018-05-12T04:17:50.722Z,9.40
2018-05-12T04:20:19.003Z,9.50
2018-05-12T04:22:47.495Z,9.60
2018-05-12T04:25:16.569Z,9.80
2018-05-12T04:27:46.023Z,10.00
2018-05-12T04:30:14.319Z,10.40
2018-05-12T04:32:42.631Z,10.50
2018-05-12T04:35:11.271Z,10.60
2018-05-12T04:37:39.822Z,10.80
2018-05-12T04:40:08.112Z,11.00
2018-05-12T04:42:36.401Z,11.40
2018-05-12T04:45:04.729Z,11.80
2018-05-12T04:47:33.777Z,12.40
2018-05-12T04:50:02.075Z,12.40
2018-05-12T04:52:31.931Z,12.80
2018-05-12T04:55:00.214Z,13.20
2018-05-12T04:57:28.501Z,13.40
2018-05-12T04:59:56.819Z,13.50
2018-05-12T05:02:25.706Z,13.40
2018-05-12T05:04:54.595Z,13.20
2018-05-12T05:07:22.884Z,13.70
2018-05-12T05:09:51.402Z,14.30
2018-05-12T05:12:20.267Z,14.80
2018-05-12T05:14:48.555Z,14.60
2018-05-12T05:17:17.562Z,14.10
2018-05-12T05:19:45.951Z,13.50
2018-05-12T05:22:14.426Z,13.10
2018-05-12T05:24:42.711Z,13.00
2018-05-12T05:27:11.414Z,12.80
2018-05-12T05:29:40.794Z,12.90
2018-05-12T05:32:09.899Z,13.30
2018-05-12T05:34:38.211Z,14.70
2018-05-12T05:37:07.068Z,16.00
2018-05-12T05:39:35.632Z,17.50
2018-05-12T05:42:03.919Z,17.30
2018-05-12T05:44:32.260Z,17.40
2018-05-12T05:47:01.127Z,17.50
2018-05-12T05:49:29.518Z,17.70
2018-05-12T05:51:57.802Z,18.30
2018-05-12T05:54:26.246Z,17.90
2018-05-12T05:56:55.078Z,18.00
2018-05-12T05:59:23.383Z,18.10
2018-05-12T06:01:52.143Z,18.40
2018-05-12T06:04:21.810Z,18.40
2018-05-12T06:06:51.448Z,19.00
2018-05-12T06:09:19.991Z,19.30
2018-05-12T06:11:48.535Z,20.10
2018-05-12T06:14:17.082Z,19.70
2018-05-12T06:16:46.076Z,19.30
2018-05-12T06:19:14.898Z,20.10
2018-05-12T06:21:43.778Z,19.40
2018-05-12T06:24:12.109Z,19.20
2018-05-12T06:26:40.397Z,19.50
2018-05-12T06:29:09.125Z,20.50
2018-05-12T06:31:37.890Z,20.80
2018-05-12T06:34:06.180Z,20.90
2018-05-12T06:36:34.846Z,20.70
2018-05-12T06:39:03.344Z,21.10
2018-05-12T06:41:31.630Z,22.40
2018-05-12T06:44:00.107Z,22.70
2018-05-12T06:46:28.458Z,24.00
2018-05-12T06:48:56.874Z,24.30
2018-05-12T06:51:26.474Z,22.80
2018-05-12T06:53:55.666Z,23.80
2018-05-12T06:56:24.086Z,22.80
2018-05-12T06:58:52.426Z,22.90
2018-05-12T07:01:21.530Z,22.70
2018-05-12T07:03:50.148Z,23.10
2018-05-12T07:06:18.430Z,22.80
2018-05-12T07:08:47.762Z,22.90
2018-05-12T07:11:16.167Z,23.10
2018-05-12T07:13:44.830Z,23.80
2018-05-12T07:16:13.311Z,24.80
2018-05-12T07:18:41.599Z,25.40
2018-05-12T07:21:09.910Z,26.20
2018-05-12T07:23:38.399Z,26.60
2018-05-12T07:26:06.814Z,25.90
2018-05-12T07:28:35.765Z,25.80
2018-05-12T07:31:05.105Z,26.10
2018-05-12T07:33:33.638Z,26.00
2018-05-12T07:36:02.328Z,26.00
2018-05-12T07:38:31.243Z,25.70
2018-05-12T07:40:59.567Z,25.30
2018-05-12T07:43:27.858Z,26.30
2018-05-12T07:45:56.847Z,25.90
2018-05-12T07:48:25.938Z,25.80
2018-05-12T07:50:54.222Z,26.60
2018-05-12T07:53:22.555Z,27.10
2018-05-12T07:55:50.847Z,27.50
2018-05-12T07:58:19.887Z,27.90
2018-05-12T08:00:49.366Z,27.60
2018-05-12T08:03:17.891Z,29.10
2018-05-12T08:05:46.962Z,30.10
2018-05-12T08:08:15.304Z,28.80
2018-05-12T08:10:43.595Z,29.30
2018-05-12T08:13:11.887Z,30.10
2018-05-12T08:15:40.415Z,30.90
2018-05-12T08:18:08.794Z,30.30
2018-05-12T08:20:37.202Z,30.40
2018-05-12T08:23:05.436Z,30.90
2018-05-12T08:25:34.491Z,30.20
2018-05-12T08:28:02.836Z,30.20
2018-05-12T08:30:32.086Z,31.50
2018-05-12T08:33:00.666Z,31.50
2018-05-12T08:35:28.950Z,31.50
2018-05-12T08:37:57.288Z,32.80
2018-05-12T08:40:25.686Z,31.90
2018-05-12T08:42:53.962Z,31.60
2018-05-12T08:45:22.267Z,32.30
2018-05-12T08:47:50.550Z,33.50
2018-05-12T08:50:18.865Z,32.10
2018-05-12T08:52:47.154Z,32.80
2018-05-12T08:55:15.442Z,30.50
2018-05-12T08:57:43.766Z,30.90
2018-05-12T09:00:13.039Z,32.40
2018-05-12T09:02:41.877Z,32.30
2018-05-12T09:05:10.211Z,31.90
2018-05-12T09:07:38.738Z,31.10
2018-05-12T09:10:07.023Z,30.70
2018-05-12T09:12:36.358Z,31.10
2018-05-12T09:15:04.646Z,31.40
2018-05-12T09:17:33.129Z,31.00
2018-05-12T09:20:01.467Z,30.70
2018-05-12T09:22:30.050Z,30.10
2018-05-12T09:24:58.346Z,31.70
2018-05-12T09:27:26.826Z,31.10
2018-05-12T09:29:55.183Z,31.90
2018-05-12T09:32:23.895Z,32.20
2018-05-12T09:34:52.301Z,31.60
2018-05-12T09:37:20.633Z,29.10
2018-05-12T09:39:49.242Z,29.90
2018-05-12T09:42:17.658Z,31.00
2018-05-12T09:44:46.135Z,30.90
2018-05-12T09:47:14.370Z,30.70
2018-05-12T09:49:42.951Z,30.50
2018-05-12T09:52:11.536Z,29.10
2018-05-12T09:54:40.595Z,29.40
2018-05-12T09:57:09.294Z,30.00
2018-05-12T09:59:37.615Z,30.40
2018-05-12T10:02:06.190Z,29.70
2018-05-12T10:04:34.733Z,28.90
2018-05-12T10:07:03.026Z,29.40
2018-05-12T10:09:31.341Z,29.10
2018-05-12T10:11:59.698Z,30.40
2018-05-12T10:14:28.485Z,30.40
2018-05-12T10:16:56.775Z,30.60
2018-05-12T10:19:25.196Z,31.10
2018-05-12T10:21:53.414Z,30.80
2018-05-12T10:24:21.743Z,30.70
2018-05-12T10:26:50.594Z,32.40
2018-05-12T10:29:18.886Z,32.00
2018-05-12T10:31:47.166Z,31.20
2018-05-12T10:34:15.496Z,32.20
2018-05-12T10:36:44.737Z,31.90
2018-05-12T10:39:13.609Z,31.40
2018-05-12T10:41:41.916Z,31.50
2018-05-12T10:44:10.202Z,32.00
2018-05-12T10:46:39.298Z,33.20
2018-05-12T10:49:08.162Z,33.00
2018-05-12T10:51:36.670Z,32.00
2018-05-12T10:54:05.016Z,32.00
2018-05-12T10:56:33.571Z,31.20
2018-05-12T10:59:01.855Z,30.90
2018-05-12T11:01:30.171Z,31.30
2018-05-12T11:03:58.677Z,31.40
2018-05-12T11:06:26.995Z,32.60
2018-05-12T11:08:55.353Z,33.00
2018-05-12T11:11:23.597Z,31.90
2018-05-12T11:13:51.880Z,32.50
2018-05-12T11:16:20.214Z,32.50
2018-05-12T11:18:48.507Z,32.30
2018-05-12T11:21:16.799Z,32.10
2018-05-12T11:23:45.111Z,31.80
2018-05-12T11:26:13.410Z,31.60
2018-05-12T11:28:41.690Z,31.00
2018-05-12T11:31:10.016Z,31.40
2018-05-12T11:33:38.387Z,33.10
2018-05-12T11:36:07.151Z,33.50
2018-05-12T11:38:35.519Z,33.50
2018-05-12T11:41:03.820Z,32.80
2018-05-12T11:43:32.155Z,33.20
2018-05-12T11:46:00.435Z,32.70
2018-05-12T11:48:28.856Z,31.50
2018-05-12T11:50:57.178Z,32.10
2018-05-12T11:53:25.531Z,33.00
2018-05-12T11:55:54.580Z,32.50
2018-05-12T11:58:22.969Z,32.50
2018-05-12T12:00:52.004Z,32.40
2018-05-12T12:03:21.791Z,32.50
2018-05-12T12:05:50.083Z,32.50
2018-05-12T12:08:18.423Z,33.40
2018-05-12T12:10:47.142Z,32.10
2018-05-12T12:13:16.080Z,31.90
2018-05-12T12:15:44.806Z,31.10
2018-05-12T12:18:13.566Z,31.40
2018-05-12T12:20:41.856Z,32.80
2018-05-12T12:23:10.274Z,33.10
2018-05-12T12:25:38.495Z,32.50
2018-05-12T12:28:06.772Z,32.30
2018-05-12T12:30:35.111Z,32.80
2018-05-12T12:33:03.404Z,33.40
2018-05-12T12:35:32.035Z,34.60
2018-05-12T12:38:01.534Z,34.20
2018-05-12T12:40:30.400Z,33.10
2018-05-12T12:42:58.886Z,32.70
2018-05-12T12:45:27.227Z,34.20
2018-05-12T12:47:55.520Z,34.40
2018-05-12T12:50:23.808Z,34.00
2018-05-12T12:52:52.164Z,32.50
2018-05-12T12:55:20.520Z,31.50
2018-05-12T12:57:48.867Z,31.30
2018-05-12T13:00:17.919Z,32.30
2018-05-12T13:02:46.284Z,33.00
2018-05-12T13:05:14.568Z,33.10
2018-05-12T13:07:43.936Z,32.10
2018-05-12T13:10:12.302Z,32.10
2018-05-12T13:12:40.584Z,33.20
2018-05-12T13:15:08.968Z,33.00
2018-05-12T13:17:37.435Z,33.00
2018-05-12T13:20:05.724Z,33.10
2018-05-12T13:22:34.021Z,33.30
2018-05-12T13:25:02.891Z,33.50
2018-05-12T13:27:31.404Z,33.20
2018-05-12T13:29:59.695Z,33.00
2018-05-12T13:32:28.706Z,33.00
2018-05-12T13:34:57.092Z,33.40
2018-05-12T13:37:25.380Z,33.90
2018-05-12T13:39:53.739Z,34.30
2018-05-12T13:42:22.825Z,33.30
2018-05-12T13:44:52.387Z,34.00
2018-05-12T13:47:21.387Z,34.00
2018-05-12T13:49:49.748Z,35.30
2018-05-12T13:52:18.066Z,35.00
2018-05-12T13:54:46.880Z,34.10
2018-05-12T13:57:15.408Z,33.20
2018-05-12T13:59:43.743Z,33.10
2018-05-12T14:02:13.032Z,32.90
2018-05-12T14:04:41.785Z,32.70
2018-05-12T14:07:10.434Z,31.60
2018-05-12T14:09:38.715Z,31.80
2018-05-12T14:12:07.012Z,32.00
2018-05-12T14:14:36.607Z,31.90
2018-05-12T14:17:04.940Z,31.40
2018-05-12T14:19:33.985Z,32.20
2018-05-12T14:22:02.287Z,33.00
2018-05-12T14:24:31.222Z,31.70
2018-05-12T14:26:59.562Z,32.10
2018-05-12T14:29:27.847Z,33.40
2018-05-12T14:31:56.938Z,33.00
2018-05-12T14:34:25.312Z,32.10
2018-05-12T14:36:53.611Z,31.70
2018-05-12T14:39:21.926Z,31.40
2018-05-12T14:41:50.235Z,30.90
2018-05-12T14:44:18.518Z,31.00
2018-05-12T14:46:46.801Z,31.60
2018-05-12T14:49:15.384Z,31.90
2018-05-12T14:51:44.430Z,31.20
2018-05-12T14:54:12.847Z,31.20
2018-05-12T14:56:41.422Z,30.80
2018-05-12T14:59:09.707Z,30.90
2018-05-12T15:01:37.998Z,31.50
2018-05-12T15:04:06.571Z,31.40
2018-05-12T15:06:35.156Z,31.10
2018-05-12T15:09:03.446Z,31.10
2018-05-12T15:11:31.858Z,31.40
2018-05-12T15:14:00.155Z,31.40
2018-05-12T15:16:28.566Z,30.80
2018-05-12T15:18:57.187Z,31.10
2018-05-12T15:21:25.585Z,31.40
2018-05-12T15:23:54.098Z,32.00
2018-05-12T15:26:22.419Z,31.90
2018-05-12T15:28:51.265Z,31.50
2018-05-12T15:31:20.250Z,32.00
2018-05-12T15:33:48.608Z,32.20
2018-05-12T15:36:17.717Z,31.00
2018-05-12T15:38:46.462Z,29.90
2018-05-12T15:41:15.063Z,29.50
2018-05-12T15:43:43.625Z,29.40
2018-05-12T15:46:11.943Z,29.40
2018-05-12T15:48:40.241Z,29.70
2018-05-12T15:51:08.528Z,29.70
2018-05-12T15:53:36.847Z,29.40
2018-05-12T15:56:05.131Z,29.00
2018-05-12T15:58:33.447Z,29.30
2018-05-12T16:01:01.786Z,29.70
2018-05-12T16:03:30.077Z,29.20
2018-05-12T16:05:58.680Z,28.80
2018-05-12T16:08:27.326Z,28.60
2018-05-12T16:10:55.615Z,28.40
2018-05-12T16:13:23.911Z,28.30
2018-05-12T16:15:52.747Z,28.00
2018-05-12T16:18:21.322Z,27.60
2018-05-12T16:20:49.599Z,27.90
2018-05-12T16:23:18.476Z,28.00
2018-05-12T16:25:46.794Z,28.20
2018-05-12T16:28:15.062Z,28.10
2018-05-12T16:30:43.379Z,27.80
2018-05-12T16:33:12.001Z,27.70
2018-05-12T16:35:40.275Z,27.70
2018-05-12T16:38:09.208Z,27.90
2018-05-12T16:40:38.178Z,27.80
2018-05-12T16:43:06.454Z,27.60
2018-05-12T16:45:34.883Z,27.50
2018-05-12T16:48:03.290Z,27.40
2018-05-12T16:50:31.604Z,27.40
2018-05-12T16:53:01.442Z,27.30
2018-05-12T16:55:29.926Z,27.30
2018-05-12T16:57:58.207Z,27.40
2018-05-12T17:00:26.515Z,27.30
2018-05-12T17:02:54.808Z,27.40
2018-05-12T17:05:23.342Z,27.30
2018-05-12T17:07:52.194Z,27.10
2018-05-12T17:10:20.482Z,27.20
2018-05-12T17:12:48.823Z,27.30
2018-05-12T17:15:17.115Z,27.40
2018-05-12T17:17:45.423Z,27.50
2018-05-12T17:20:13.853Z,27.30
2018-05-12T17:22:42.607Z,27.60
2018-05-12T17:25:11.394Z,27.60
2018-05-12T17:27:40.098Z,27.20
2018-05-12T17:30:08.955Z,26.90
2018-05-12T17:32:37.583Z,26.80
2018-05-12T17:35:06.380Z,26.70
2018-05-12T17:37:34.991Z,26.50
2018-05-12T17:40:03.274Z,26.40
2018-05-12T17:42:31.570Z,26.30
2018-05-12T17:44:59.854Z,26.20
2018-05-12T17:47:29.351Z,26.00
2018-05-12T17:49:58.074Z,25.60
2018-05-12T17:52:26.316Z,25.50
2018-05-12T17:54:54.659Z,25.30
2018-05-12T17:57:23.088Z,25.30
2018-05-12T17:59:51.707Z,25.10
2018-05-12T18:02:20.459Z,25.00
2018-05-12T18:04:49.275Z,24.80
2018-05-12T18:07:17.567Z,24.70
2018-05-12T18:09:45.903Z,24.70
2018-05-12T18:12:14.944Z,24.60
2018-05-12T18:14:43.232Z,24.30
2018-05-12T18:17:11.611Z,24.20
2018-05-12T18:19:40.038Z,23.90
2018-05-12T18:22:08.326Z,23.60
2018-05-12T18:24:36.941Z,23.20
2018-05-12T18:27:05.229Z,23.10
2018-05-12T18:29:33.510Z,23.20
2018-05-12T18:32:01.846Z,23.00
2018-05-12T18:34:30.403Z,22.90
2018-05-12T18:36:58.687Z,22.60
2018-05-12T18:39:27.655Z,22.40
2018-05-12T18:41:55.983Z,22.30
2018-05-12T18:44:24.271Z,22.30
2018-05-12T18:46:52.575Z,22.30
2018-05-12T18:49:21.543Z,22.10
2018-05-12T18:51:49.835Z,21.80
2018-05-12T18:54:18.407Z,21.80
2018-05-12T18:56:47.027Z,21.40
2018-05-12T18:59:15.317Z,21.30
2018-05-12T19:01:43.643Z,21.10
2018-05-12T19:04:11.931Z,20.90
2018-05-12T19:06:40.211Z,21.00
2018-05-12T19:09:08.559Z,20.90
2018-05-12T19:11:37.383Z,20.90
2018-05-12T19:14:05.662Z,20.80
2018-05-12T19:16:33.967Z,20.80
2018-05-12T19:19:02.259Z,20.70
2018-05-12T19:21:30.910Z,20.50
2018-05-12T19:23:59.408Z,20.50
2018-05-12T19:26:28.463Z,20.20
2018-05-12T19:28:57.474Z,20.20
2018-05-12T19:31:26.342Z,20.10
2018-05-12T19:33:54.696Z,19.90
2018-05-12T19:36:23.146Z,19.80
2018-05-12T19:38:51.478Z,19.60
2018-05-12T19:41:19.759Z,19.50
2018-05-12T19:43:48.136Z,19.40
2018-05-12T19:46:16.880Z,19.40
2018-05-12T19:48:45.158Z,19.20
2018-05-12T19:51:13.442Z,19.20
2018-05-12T19:53:42.271Z,19.20
2018-05-12T19:56:10.554Z,19.10
2018-05-12T19:58:38.886Z,19.20
2018-05-12T20:01:07.173Z,19.20
2018-05-12T20:03:35.465Z,19.10
2018-05-12T20:06:03.866Z,18.90
2018-05-12T20:08:32.347Z,18.90
2018-05-12T20:11:00.679Z,18.90
2018-05-12T20:13:29.004Z,18.90
2018-05-12T20:15:58.684Z,19.10
2018-05-12T20:18:27.087Z,19.40
2018-05-12T20:20:55.967Z,19.40
2018-05-12T20:23:24.250Z,19.40
2018-05-12T20:25:52.543Z,19.30
2018-05-12T20:28:21.069Z,19.30
2018-05-12T20:30:50.791Z,19.20
2018-05-12T20:33:19.066Z,19.10
2018-05-12T20:35:47.643Z,19.20
2018-05-12T20:38:15.939Z,19.30
2018-05-12T20:40:44.988Z,19.00
2018-05-12T20:43:14.078Z,18.80
2018-05-12T20:45:42.356Z,18.80
2018-05-12T20:48:11.414Z,18.50
2018-05-12T20:50:39.734Z,18.50
2018-05-12T20:53:08.791Z,18.20
2018-05-12T20:55:38.175Z,18.10
2018-05-12T20:58:06.810Z,18.10
2018-05-12T21:00:35.095Z,18.00
2018-05-12T21:03:03.436Z,18.00
2018-05-12T21:05:32.078Z,18.00
2018-05-12T21:08:00.368Z,18.00
2018-05-12T21:10:28.879Z,18.00
2018-05-12T21:12:57.899Z,18.00
2018-05-12T21:15:26.294Z,17.90
2018-05-12T21:17:55.825Z,17.90
2018-05-12T21:20:24.110Z,17.90
2018-05-12T21:22:52.386Z,17.90
2018-05-12T21:25:20.702Z,17.90
2018-05-12T21:27:48.986Z,17.90
2018-05-12T21:30:17.459Z,17.90
2018-05-12T21:32:45.807Z,17.90
2018-05-12T21:35:14.091Z,17.90
2018-05-12T21:37:42.505Z,17.80
2018-05-12T21:40:10.847Z,17.70
2018-05-12T21:42:39.851Z,17.80
2018-05-12T21:45:08.134Z,17.80
2018-05-12T21:47:36.839Z,17.80
2018-05-12T21:50:05.399Z,17.90
2018-05-12T21:52:33.686Z,17.90
2018-05-12T21:55:02.026Z,17.90
2018-05-12T21:57:30.334Z,18.30
2018-05-12T21:59:58.694Z,18.50
2018-05-12T22:02:27.033Z,18.60
2018-05-12T22:04:55.323Z,18.40
2018-05-12T22:07:23.620Z,18.40
2018-05-12T22:09:52.286Z,18.20
2018-05-12T22:12:20.597Z,18.00
2018-05-12T22:14:48.887Z,18.00
2018-05-12T22:17:17.905Z,17.90
2018-05-12T22:19:46.195Z,17.80
2018-05-12T22:22:14.639Z,17.90
2018-05-12T22:24:43.055Z,17.90
2018-05-12T22:27:11.334Z,18.00
2018-05-12T22:29:39.618Z,18.00
2018-05-12T22:32:08.311Z,18.00
2018-05-12T22:34:36.845Z,18.10
2018-05-12T22:37:05.134Z,17.90
2018-05-12T22:39:33.706Z,18.00
2018-05-12T22:42:02.250Z,18.00
2018-05-12T22:44:30.550Z,18.00
2018-05-12T22:46:58.883Z,18.00
2018-05-12T22:49:27.314Z,17.90
2018-05-12T22:51:55.601Z,18.00
2018-05-12T22:54:23.942Z,17.90
2018-05-12T22:56:52.234Z,17.80
2018-05-12T22:59:20.528Z,17.80
2018-05-12T23:01:48.838Z,17.70
2018-05-12T23:04:17.113Z,17.50
2018-05-12T23:06:45.390Z,17.50
2018-05-12T23:09:13.728Z,17.50
2018-05-12T23:11:42.014Z,17.40
2018-05-12T23:14:10.304Z,17.20
2018-05-12T23:16:38.618Z,17.30
2018-05-12T23:19:06.900Z,17.30
2018-05-12T23:21:35.454Z,17.20
2018-05-12T23:24:04.011Z,16.90
2018-05-12T23:26:32.293Z,16.60
2018-05-12T23:29:00.579Z,16.30
2018-05-12T23:31:28.912Z,16.10
2018-05-12T23:33:57.335Z,16.20
2018-05-12T23:36:25.620Z,16.50
2018-05-12T23:38:53.955Z,16.80
2018-05-12T23:41:22.355Z,16.70
2018-05-12T23:43:50.635Z,16.80
2018-05-12T23:46:20.142Z,16.90
2018-05-12T23:48:48.438Z,17.00
2018-05-12T23:51:16.741Z,17.00
2018-05-12T23:53:45.138Z,16.80
2018-05-12T23:56:14.087Z,16.70
2018-05-12T23:58:42.573Z,16.60
